sensor_id;sensor_type;location;lat;lon;timestamp;P1;durP1;ratioP1;P2;durP2;ratioP2
57325;SDS011;43161;50.950;18.224;2023-03-01T00:01:04;94.00;;;34.10;;
57325;SDS011;43161;50.950;18.224;2023-03-01T00:03:34;99.40;;;36.20;;
57325;SDS011;43161;50.950;18.224;2023-03-01T00:06:00;61.50;;;25.20;;
57325;SDS011;43161;50.950;18.224;2023-03-01T00:08:26;61.90;;;25.80;;
57325;SDS011;43161;50.950;18.224;2023-03-01T00:13:42;96.30;;;34.50;;
57325;SDS011;43161;50.950;18.224;2023-03-01T00:16:10;107.50;;;36.10;;
57325;SDS011;43161;50.950;18.224;2023-03-01T00:18:38;92.20;;;34.30;;
57325;SDS011;43161;50.950;18.224;2023-03-01T00:21:04;94.60;;;33.70;;
57325;SDS011;43161;50.950;18.224;2023-03-01T00:23:31;91.90;;;33.60;;
57325;SDS011;43161;50.950;18.224;2023-03-01T00:25:57;98.50;;;36.80;;
57325;SDS011;43161;50.950;18.224;2023-03-01T00:28:23;79.60;;;30.20;;
57325;SDS011;43161;50.950;18.224;2023-03-01T00:30:49;80.60;;;31.10;;
57325;SDS011;43161;50.950;18.224;2023-03-01T00:33:14;76.10;;;28.00;;
57325;SDS011;43161;50.950;18.224;2023-03-01T00:35:40;67.30;;;26.00;;
57325;SDS011;43161;50.950;18.224;2023-03-01T00:38:06;63.50;;;25.70;;
57325;SDS011;43161;50.950;18.224;2023-03-01T00:40:32;71.00;;;25.30;;
57325;SDS011;43161;50.950;18.224;2023-03-01T00:42:59;70.90;;;25.80;;
57325;SDS011;43161;50.950;18.224;2023-03-01T00:45:26;73.20;;;26.80;;
57325;SDS011;43161;50.950;18.224;2023-03-01T00:47:52;73.10;;;26.50;;
57325;SDS011;43161;50.950;18.224;2023-03-01T00:50:19;77.60;;;26.30;;
57325;SDS011;43161;50.950;18.224;2023-03-01T00:52:45;78.50;;;26.80;;
57325;SDS011;43161;50.950;18.224;2023-03-01T00:55:11;68.80;;;26.20;;
57325;SDS011;43161;50.950;18.224;2023-03-01T00:57:37;70.00;;;25.70;;
57325;SDS011;43161;50.950;18.224;2023-03-01T01:00:04;69.70;;;25.60;;
57325;SDS011;43161;50.950;18.224;2023-03-01T01:02:34;72.70;;;27.80;;
57325;SDS011;43161;50.950;18.224;2023-03-01T01:05:00;73.60;;;26.00;;
57325;SDS011;43161;50.950;18.224;2023-03-01T01:07:25;70.10;;;26.60;;
57325;SDS011;43161;50.950;18.224;2023-03-01T01:09:51;71.90;;;26.60;;
57325;SDS011;43161;50.950;18.224;2023-03-01T01:12:17;62.50;;;24.60;;
57325;SDS011;43161;50.950;18.224;2023-03-01T01:14:43;75.40;;;29.30;;
57325;SDS011;43161;50.950;18.224;2023-03-01T01:17:09;83.40;;;31.40;;
57325;SDS011;43161;50.950;18.224;2023-03-01T01:19:34;74.90;;;28.00;;
57325;SDS011;43161;50.950;18.224;2023-03-01T01:22:00;77.90;;;31.70;;
57325;SDS011;43161;50.950;18.224;2023-03-01T01:24:25;82.80;;;29.80;;
57325;SDS011;43161;50.950;18.224;2023-03-01T01:26:51;82.30;;;32.00;;
57325;SDS011;43161;50.950;18.224;2023-03-01T01:29:17;93.90;;;35.40;;
57325;SDS011;43161;50.950;18.224;2023-03-01T01:31:42;102.70;;;38.00;;
57325;SDS011;43161;50.950;18.224;2023-03-01T01:34:12;93.90;;;36.60;;
57325;SDS011;43161;50.950;18.224;2023-03-01T01:36:40;101.80;;;38.30;;
57325;SDS011;43161;50.950;18.224;2023-03-01T01:39:05;99.70;;;35.90;;
57325;SDS011;43161;50.950;18.224;2023-03-01T01:41:32;87.90;;;34.90;;
57325;SDS011;43161;50.950;18.224;2023-03-01T01:46:47;100.10;;;40.00;;
57325;SDS011;43161;50.950;18.224;2023-03-01T01:52:00;97.50;;;36.20;;
57325;SDS011;43161;50.950;18.224;2023-03-01T01:54:49;103.00;;;39.70;;
57325;SDS011;43161;50.950;18.224;2023-03-01T01:57:39;90.10;;;34.70;;
57325;SDS011;43161;50.950;18.224;2023-03-01T02:00:08;95.30;;;37.10;;
57325;SDS011;43161;50.950;18.224;2023-03-01T02:02:36;109.60;;;44.50;;
57325;SDS011;43161;50.950;18.224;2023-03-01T02:05:22;108.70;;;42.40;;
57325;SDS011;43161;50.950;18.224;2023-03-01T02:08:06;96.50;;;36.80;;
57325;SDS011;43161;50.950;18.224;2023-03-01T02:10:32;98.90;;;37.00;;
57325;SDS011;43161;50.950;18.224;2023-03-01T02:12:59;93.30;;;33.90;;
57325;SDS011;43161;50.950;18.224;2023-03-01T02:15:25;82.00;;;31.50;;
57325;SDS011;43161;50.950;18.224;2023-03-01T02:17:52;70.90;;;26.70;;
57325;SDS011;43161;50.950;18.224;2023-03-01T02:23:00;68.80;;;27.60;;
57325;SDS011;43161;50.950;18.224;2023-03-01T02:30:56;84.50;;;30.60;;
57325;SDS011;43161;50.950;18.224;2023-03-01T02:33:38;83.00;;;31.70;;
57325;SDS011;43161;50.950;18.224;2023-03-01T02:36:06;79.90;;;30.30;;
57325;SDS011;43161;50.950;18.224;2023-03-01T02:38:34;83.70;;;31.50;;
57325;SDS011;43161;50.950;18.224;2023-03-01T02:40:59;79.10;;;30.80;;
57325;SDS011;43161;50.950;18.224;2023-03-01T02:43:29;77.70;;;29.70;;
57325;SDS011;43161;50.950;18.224;2023-03-01T02:45:57;79.30;;;31.60;;
57325;SDS011;43161;50.950;18.224;2023-03-01T02:48:38;83.60;;;32.80;;
57325;SDS011;43161;50.950;18.224;2023-03-01T02:54:15;68.50;;;27.80;;
57325;SDS011;43161;50.950;18.224;2023-03-01T02:56:46;70.50;;;27.80;;
57325;SDS011;43161;50.950;18.224;2023-03-01T02:59:19;69.60;;;27.90;;
57325;SDS011;43161;50.950;18.224;2023-03-01T03:01:46;74.60;;;30.30;;
57325;SDS011;43161;50.950;18.224;2023-03-01T03:04:17;83.40;;;32.90;;
57325;SDS011;43161;50.950;18.224;2023-03-01T03:06:49;86.90;;;34.30;;
57325;SDS011;43161;50.950;18.224;2023-03-01T03:09:15;94.80;;;35.90;;
57325;SDS011;43161;50.950;18.224;2023-03-01T03:11:42;79.30;;;30.60;;
57325;SDS011;43161;50.950;18.224;2023-03-01T03:14:12;85.10;;;32.40;;
57325;SDS011;43161;50.950;18.224;2023-03-01T03:16:44;83.10;;;34.70;;
57325;SDS011;43161;50.950;18.224;2023-03-01T03:19:11;82.30;;;33.30;;
57325;SDS011;43161;50.950;18.224;2023-03-01T03:21:36;90.70;;;34.30;;
57325;SDS011;43161;50.950;18.224;2023-03-01T03:24:03;85.70;;;33.00;;
57325;SDS011;43161;50.950;18.224;2023-03-01T03:26:29;79.80;;;30.40;;
57325;SDS011;43161;50.950;18.224;2023-03-01T03:28:55;85.60;;;33.40;;
57325;SDS011;43161;50.950;18.224;2023-03-01T03:31:21;84.20;;;33.80;;
57325;SDS011;43161;50.950;18.224;2023-03-01T03:33:47;79.90;;;31.10;;
57325;SDS011;43161;50.950;18.224;2023-03-01T03:36:20;86.70;;;31.60;;
57325;SDS011;43161;50.950;18.224;2023-03-01T03:38:46;88.00;;;33.70;;
57325;SDS011;43161;50.950;18.224;2023-03-01T03:41:12;85.70;;;30.20;;
57325;SDS011;43161;50.950;18.224;2023-03-01T03:43:39;88.60;;;30.60;;
57325;SDS011;43161;50.950;18.224;2023-03-01T03:46:06;79.70;;;30.20;;
57325;SDS011;43161;50.950;18.224;2023-03-01T03:48:33;86.40;;;31.00;;
57325;SDS011;43161;50.950;18.224;2023-03-01T03:51:00;76.70;;;29.40;;
57325;SDS011;43161;50.950;18.224;2023-03-01T03:53:26;75.90;;;29.20;;
57325;SDS011;43161;50.950;18.224;2023-03-01T03:55:53;87.40;;;34.00;;
57325;SDS011;43161;50.950;18.224;2023-03-01T03:58:20;81.60;;;28.60;;
57325;SDS011;43161;50.950;18.224;2023-03-01T04:00:47;76.20;;;27.60;;
57325;SDS011;43161;50.950;18.224;2023-03-01T04:03:15;74.50;;;26.80;;
57325;SDS011;43161;50.950;18.224;2023-03-01T04:05:44;84.50;;;28.00;;
57325;SDS011;43161;50.950;18.224;2023-03-01T04:08:10;81.30;;;27.30;;
57325;SDS011;43161;50.950;18.224;2023-03-01T04:10:41;94.20;;;28.90;;
57325;SDS011;43161;50.950;18.224;2023-03-01T04:13:10;88.20;;;28.50;;
57325;SDS011;43161;50.950;18.224;2023-03-01T04:15:37;80.50;;;26.80;;
57325;SDS011;43161;50.950;18.224;2023-03-01T04:18:04;75.80;;;27.90;;
57325;SDS011;43161;50.950;18.224;2023-03-01T04:20:31;81.20;;;27.00;;
57325;SDS011;43161;50.950;18.224;2023-03-01T04:23:04;76.80;;;29.10;;
57325;SDS011;43161;50.950;18.224;2023-03-01T04:25:57;91.10;;;31.00;;
57325;SDS011;43161;50.950;18.224;2023-03-01T04:28:22;78.40;;;28.20;;
57325;SDS011;43161;50.950;18.224;2023-03-01T04:30:50;82.80;;;28.00;;
57325;SDS011;43161;50.950;18.224;2023-03-01T04:33:17;70.00;;;27.40;;
57325;SDS011;43161;50.950;18.224;2023-03-01T04:35:43;84.20;;;33.50;;
57325;SDS011;43161;50.950;18.224;2023-03-01T04:38:09;78.60;;;29.00;;
57325;SDS011;43161;50.950;18.224;2023-03-01T04:40:36;80.30;;;30.40;;
57325;SDS011;43161;50.950;18.224;2023-03-01T04:43:02;86.30;;;32.10;;
57325;SDS011;43161;50.950;18.224;2023-03-01T04:45:28;80.20;;;31.20;;
57325;SDS011;43161;50.950;18.224;2023-03-01T04:47:54;80.10;;;32.10;;
57325;SDS011;43161;50.950;18.224;2023-03-01T04:50:23;77.20;;;31.10;;
57325;SDS011;43161;50.950;18.224;2023-03-01T04:52:50;79.00;;;31.20;;
57325;SDS011;43161;50.950;18.224;2023-03-01T04:55:17;76.30;;;29.10;;
57325;SDS011;43161;50.950;18.224;2023-03-01T04:57:43;76.20;;;28.00;;
57325;SDS011;43161;50.950;18.224;2023-03-01T05:00:10;72.40;;;28.90;;
57325;SDS011;43161;50.950;18.224;2023-03-01T05:02:53;77.10;;;27.60;;
57325;SDS011;43161;50.950;18.224;2023-03-01T05:05:24;69.80;;;26.70;;
57325;SDS011;43161;50.950;18.224;2023-03-01T05:07:58;67.00;;;25.50;;
57325;SDS011;43161;50.950;18.224;2023-03-01T05:12:51;71.80;;;26.40;;
57325;SDS011;43161;50.950;18.224;2023-03-01T05:15:18;76.60;;;27.50;;
57325;SDS011;43161;50.950;18.224;2023-03-01T05:17:44;78.30;;;29.00;;
57325;SDS011;43161;50.950;18.224;2023-03-01T05:20:11;66.70;;;26.40;;
57325;SDS011;43161;50.950;18.224;2023-03-01T05:22:37;67.70;;;26.90;;
57325;SDS011;43161;50.950;18.224;2023-03-01T05:25:03;73.30;;;26.50;;
57325;SDS011;43161;50.950;18.224;2023-03-01T05:27:30;69.30;;;25.90;;
57325;SDS011;43161;50.950;18.224;2023-03-01T05:29:56;77.30;;;27.90;;
57325;SDS011;43161;50.950;18.224;2023-03-01T05:32:22;59.00;;;23.40;;
57325;SDS011;43161;50.950;18.224;2023-03-01T05:34:47;73.60;;;26.90;;
57325;SDS011;43161;50.950;18.224;2023-03-01T05:37:13;75.10;;;28.60;;
57325;SDS011;43161;50.950;18.224;2023-03-01T05:39:40;72.20;;;27.20;;
57325;SDS011;43161;50.950;18.224;2023-03-01T05:42:09;81.80;;;29.10;;
57325;SDS011;43161;50.950;18.224;2023-03-01T05:44:36;71.20;;;26.40;;
57325;SDS011;43161;50.950;18.224;2023-03-01T05:47:02;62.50;;;25.50;;
57325;SDS011;43161;50.950;18.224;2023-03-01T05:49:28;67.50;;;24.70;;
57325;SDS011;43161;50.950;18.224;2023-03-01T05:51:54;74.30;;;27.00;;
57325;SDS011;43161;50.950;18.224;2023-03-01T05:54:20;72.80;;;27.00;;
57325;SDS011;43161;50.950;18.224;2023-03-01T05:56:47;68.10;;;25.20;;
57325;SDS011;43161;50.950;18.224;2023-03-01T05:59:13;73.90;;;26.50;;
57325;SDS011;43161;50.950;18.224;2023-03-01T06:01:40;69.40;;;26.50;;
57325;SDS011;43161;50.950;18.224;2023-03-01T06:04:06;69.40;;;27.60;;
57325;SDS011;43161;50.950;18.224;2023-03-01T06:06:35;71.20;;;29.90;;
57325;SDS011;43161;50.950;18.224;2023-03-01T06:09:05;83.90;;;33.20;;
57325;SDS011;43161;50.950;18.224;2023-03-01T06:11:36;87.90;;;34.00;;
57325;SDS011;43161;50.950;18.224;2023-03-01T06:14:02;89.50;;;37.20;;
57325;SDS011;43161;50.950;18.224;2023-03-01T06:16:28;103.20;;;47.00;;
57325;SDS011;43161;50.950;18.224;2023-03-01T06:18:54;114.90;;;45.80;;
57325;SDS011;43161;50.950;18.224;2023-03-01T06:21:19;159.50;;;72.20;;
57325;SDS011;43161;50.950;18.224;2023-03-01T06:23:45;182.90;;;76.70;;
57325;SDS011;43161;50.950;18.224;2023-03-01T06:26:11;128.30;;;55.80;;
57325;SDS011;43161;50.950;18.224;2023-03-01T06:28:36;137.20;;;60.00;;
57325;SDS011;43161;50.950;18.224;2023-03-01T06:31:02;126.80;;;56.40;;
57325;SDS011;43161;50.950;18.224;2023-03-01T06:33:28;143.80;;;61.50;;
57325;SDS011;43161;50.950;18.224;2023-03-01T06:35:54;139.60;;;60.30;;
57325;SDS011;43161;50.950;18.224;2023-03-01T06:38:21;114.50;;;50.20;;
57325;SDS011;43161;50.950;18.224;2023-03-01T06:40:54;116.70;;;49.80;;
57325;SDS011;43161;50.950;18.224;2023-03-01T06:43:22;117.30;;;49.70;;
57325;SDS011;43161;50.950;18.224;2023-03-01T06:45:48;100.10;;;39.40;;
57325;SDS011;43161;50.950;18.224;2023-03-01T06:48:14;96.20;;;36.50;;
57325;SDS011;43161;50.950;18.224;2023-03-01T06:50:40;103.00;;;38.20;;
57325;SDS011;43161;50.950;18.224;2023-03-01T06:53:06;106.70;;;43.90;;
57325;SDS011;43161;50.950;18.224;2023-03-01T06:55:32;94.50;;;38.60;;
57325;SDS011;43161;50.950;18.224;2023-03-01T06:57:58;88.00;;;35.90;;
57325;SDS011;43161;50.950;18.224;2023-03-01T07:00:25;98.40;;;36.60;;
57325;SDS011;43161;50.950;18.224;2023-03-01T07:02:52;94.90;;;37.90;;
57325;SDS011;43161;50.950;18.224;2023-03-01T07:05:18;114.90;;;40.90;;
57325;SDS011;43161;50.950;18.224;2023-03-01T07:07:43;150.40;;;49.80;;
57325;SDS011;43161;50.950;18.224;2023-03-01T07:10:09;136.30;;;48.50;;
57325;SDS011;43161;50.950;18.224;2023-03-01T07:12:37;135.50;;;48.90;;
57325;SDS011;43161;50.950;18.224;2023-03-01T07:15:03;92.00;;;38.10;;
57325;SDS011;43161;50.950;18.224;2023-03-01T07:17:29;95.70;;;42.20;;
57325;SDS011;43161;50.950;18.224;2023-03-01T07:19:55;112.50;;;47.40;;
57325;SDS011;43161;50.950;18.224;2023-03-01T07:22:22;110.30;;;44.10;;
57325;SDS011;43161;50.950;18.224;2023-03-01T07:24:47;111.20;;;41.60;;
57325;SDS011;43161;50.950;18.224;2023-03-01T07:27:13;94.80;;;36.20;;
57325;SDS011;43161;50.950;18.224;2023-03-01T07:29:39;102.60;;;37.30;;
57325;SDS011;43161;50.950;18.224;2023-03-01T07:32:05;102.40;;;38.90;;
57325;SDS011;43161;50.950;18.224;2023-03-01T07:34:32;102.40;;;40.40;;
57325;SDS011;43161;50.950;18.224;2023-03-01T07:36:58;109.80;;;42.00;;
57325;SDS011;43161;50.950;18.224;2023-03-01T07:39:24;104.00;;;40.10;;
57325;SDS011;43161;50.950;18.224;2023-03-01T07:41:50;112.40;;;42.20;;
57325;SDS011;43161;50.950;18.224;2023-03-01T07:44:16;99.20;;;37.70;;
57325;SDS011;43161;50.950;18.224;2023-03-01T07:46:42;112.40;;;41.80;;
57325;SDS011;43161;50.950;18.224;2023-03-01T07:49:09;112.30;;;42.60;;
57325;SDS011;43161;50.950;18.224;2023-03-01T07:51:35;117.30;;;43.30;;
57325;SDS011;43161;50.950;18.224;2023-03-01T07:54:00;117.30;;;43.70;;
57325;SDS011;43161;50.950;18.224;2023-03-01T07:56:26;106.30;;;42.50;;
57325;SDS011;43161;50.950;18.224;2023-03-01T07:58:52;101.70;;;40.70;;
57325;SDS011;43161;50.950;18.224;2023-03-01T08:01:19;117.40;;;41.80;;
57325;SDS011;43161;50.950;18.224;2023-03-01T08:03:46;103.50;;;40.60;;
57325;SDS011;43161;50.950;18.224;2023-03-01T08:06:14;98.30;;;37.00;;
57325;SDS011;43161;50.950;18.224;2023-03-01T08:08:41;103.30;;;39.40;;
57325;SDS011;43161;50.950;18.224;2023-03-01T08:11:09;104.40;;;40.90;;
57325;SDS011;43161;50.950;18.224;2023-03-01T08:13:36;117.80;;;45.90;;
57325;SDS011;43161;50.950;18.224;2023-03-01T08:16:02;108.60;;;42.10;;
57325;SDS011;43161;50.950;18.224;2023-03-01T08:18:29;106.90;;;41.30;;
57325;SDS011;43161;50.950;18.224;2023-03-01T08:20:55;64.90;;;25.80;;
57325;SDS011;43161;50.950;18.224;2023-03-01T08:23:21;65.00;;;26.60;;
57325;SDS011;43161;50.950;18.224;2023-03-01T08:25:48;57.10;;;23.50;;
57325;SDS011;43161;50.950;18.224;2023-03-01T08:28:14;99.50;;;37.30;;
57325;SDS011;43161;50.950;18.224;2023-03-01T08:30:39;86.50;;;36.10;;
57325;SDS011;43161;50.950;18.224;2023-03-01T08:33:05;85.00;;;35.40;;
57325;SDS011;43161;50.950;18.224;2023-03-01T08:35:31;77.50;;;31.10;;
57325;SDS011;43161;50.950;18.224;2023-03-01T08:37:57;67.70;;;27.80;;
57325;SDS011;43161;50.950;18.224;2023-03-01T08:40:22;55.80;;;22.70;;
57325;SDS011;43161;50.950;18.224;2023-03-01T08:42:48;51.20;;;22.40;;
57325;SDS011;43161;50.950;18.224;2023-03-01T08:45:13;58.20;;;23.20;;
57325;SDS011;43161;50.950;18.224;2023-03-01T08:47:43;100.80;;;36.60;;
57325;SDS011;43161;50.950;18.224;2023-03-01T08:50:10;69.20;;;27.90;;
57325;SDS011;43161;50.950;18.224;2023-03-01T08:52:36;57.00;;;23.60;;
57325;SDS011;43161;50.950;18.224;2023-03-01T08:55:02;54.20;;;27.70;;
57325;SDS011;43161;50.950;18.224;2023-03-01T08:57:28;57.90;;;27.10;;
57325;SDS011;43161;50.950;18.224;2023-03-01T08:59:53;59.10;;;28.50;;
57325;SDS011;43161;50.950;18.224;2023-03-01T09:02:21;49.70;;;22.00;;
57325;SDS011;43161;50.950;18.224;2023-03-01T09:04:47;42.50;;;17.70;;
57325;SDS011;43161;50.950;18.224;2023-03-01T09:07:13;38.30;;;17.70;;
57325;SDS011;43161;50.950;18.224;2023-03-01T09:09:39;43.00;;;19.50;;
57325;SDS011;43161;50.950;18.224;2023-03-01T09:12:05;46.20;;;21.40;;
57325;SDS011;43161;50.950;18.224;2023-03-01T09:14:31;45.00;;;19.50;;
57325;SDS011;43161;50.950;18.224;2023-03-01T09:16:58;43.30;;;18.70;;
57325;SDS011;43161;50.950;18.224;2023-03-01T09:19:24;38.60;;;18.20;;
57325;SDS011;43161;50.950;18.224;2023-03-01T09:21:50;48.60;;;20.00;;
57325;SDS011;43161;50.950;18.224;2023-03-01T09:24:19;44.50;;;18.60;;
57325;SDS011;43161;50.950;18.224;2023-03-01T09:26:46;40.90;;;16.80;;
57325;SDS011;43161;50.950;18.224;2023-03-01T09:29:13;33.20;;;16.40;;
57325;SDS011;43161;50.950;18.224;2023-03-01T09:31:39;31.30;;;14.50;;
57325;SDS011;43161;50.950;18.224;2023-03-01T09:34:05;32.20;;;15.40;;
57325;SDS011;43161;50.950;18.224;2023-03-01T09:36:32;38.40;;;17.70;;
57325;SDS011;43161;50.950;18.224;2023-03-01T09:38:58;35.00;;;15.80;;
57325;SDS011;43161;50.950;18.224;2023-03-01T09:46:40;30.80;;;14.40;;
57325;SDS011;43161;50.950;18.224;2023-03-01T09:49:12;34.10;;;16.20;;
57325;SDS011;43161;50.950;18.224;2023-03-01T09:54:08;27.50;;;12.40;;
57325;SDS011;43161;50.950;18.224;2023-03-01T09:56:46;26.60;;;12.60;;
57325;SDS011;43161;50.950;18.224;2023-03-01T09:59:25;32.90;;;13.90;;
57325;SDS011;43161;50.950;18.224;2023-03-01T10:04:44;39.90;;;18.40;;
57325;SDS011;43161;50.950;18.224;2023-03-01T10:09:57;37.70;;;18.10;;
57325;SDS011;43161;50.950;18.224;2023-03-01T10:12:32;45.30;;;20.90;;
57325;SDS011;43161;50.950;18.224;2023-03-01T10:17:30;43.20;;;18.40;;
57325;SDS011;43161;50.950;18.224;2023-03-01T10:19:59;37.50;;;17.60;;
57325;SDS011;43161;50.950;18.224;2023-03-01T10:22:56;34.90;;;17.20;;
57325;SDS011;43161;50.950;18.224;2023-03-01T10:30:49;32.70;;;16.60;;
57325;SDS011;43161;50.950;18.224;2023-03-01T10:33:17;32.40;;;16.80;;
57325;SDS011;43161;50.950;18.224;2023-03-01T10:35:47;33.50;;;17.70;;
57325;SDS011;43161;50.950;18.224;2023-03-01T10:38:14;37.50;;;17.30;;
57325;SDS011;43161;50.950;18.224;2023-03-01T10:43:45;39.00;;;18.40;;
57325;SDS011;43161;50.950;18.224;2023-03-01T10:46:25;39.50;;;18.20;;
57325;SDS011;43161;50.950;18.224;2023-03-01T10:49:06;36.30;;;17.50;;
57325;SDS011;43161;50.950;18.224;2023-03-01T10:51:51;37.70;;;18.70;;
57325;SDS011;43161;50.950;18.224;2023-03-01T10:56:58;33.00;;;17.00;;
57325;SDS011;43161;50.950;18.224;2023-03-01T10:59:35;34.30;;;17.30;;
57325;SDS011;43161;50.950;18.224;2023-03-01T11:04:34;32.70;;;16.80;;
57325;SDS011;43161;50.950;18.224;2023-03-01T11:07:01;36.60;;;17.30;;
57325;SDS011;43161;50.950;18.224;2023-03-01T11:09:30;34.60;;;16.50;;
57325;SDS011;43161;50.950;18.224;2023-03-01T11:12:03;30.40;;;15.90;;
57325;SDS011;43161;50.950;18.224;2023-03-01T11:14:36;30.60;;;15.10;;
57325;SDS011;43161;50.950;18.224;2023-03-01T11:17:13;29.90;;;15.90;;
57325;SDS011;43161;50.950;18.224;2023-03-01T11:19:42;30.50;;;15.20;;
57325;SDS011;43161;50.950;18.224;2023-03-01T11:24:51;33.70;;;15.90;;
57325;SDS011;43161;50.950;18.224;2023-03-01T11:29:48;32.10;;;15.50;;
57325;SDS011;43161;50.950;18.224;2023-03-01T11:32:40;27.20;;;14.50;;
57325;SDS011;43161;50.950;18.224;2023-03-01T11:35:20;29.50;;;15.60;;
57325;SDS011;43161;50.950;18.224;2023-03-01T11:37:59;30.10;;;16.00;;
57325;SDS011;43161;50.950;18.224;2023-03-01T12:08:20;30.70;;;15.00;;
57325;SDS011;43161;50.950;18.224;2023-03-01T12:27:58;30.80;;;15.30;;
57325;SDS011;43161;50.950;18.224;2023-03-01T12:39:19;31.40;;;15.80;;
57325;SDS011;43161;50.950;18.224;2023-03-01T12:49:57;36.30;;;18.30;;
57325;SDS011;43161;50.950;18.224;2023-03-01T13:12:03;31.70;;;16.20;;
57325;SDS011;43161;50.950;18.224;2023-03-01T13:16:58;32.00;;;15.40;;
57325;SDS011;43161;50.950;18.224;2023-03-01T13:19:25;28.90;;;14.40;;
57325;SDS011;43161;50.950;18.224;2023-03-01T13:21:52;32.10;;;16.30;;
57325;SDS011;43161;50.950;18.224;2023-03-01T13:24:23;31.80;;;15.90;;
57325;SDS011;43161;50.950;18.224;2023-03-01T13:37:42;28.30;;;14.40;;
57325;SDS011;43161;50.950;18.224;2023-03-01T13:42:47;27.30;;;13.10;;
57325;SDS011;43161;50.950;18.224;2023-03-01T13:45:16;28.30;;;13.50;;
57325;SDS011;43161;50.950;18.224;2023-03-01T13:47:48;29.00;;;14.00;;
57325;SDS011;43161;50.950;18.224;2023-03-01T13:50:18;30.30;;;14.70;;
57325;SDS011;43161;50.950;18.224;2023-03-01T13:55:21;27.20;;;12.60;;
57325;SDS011;43161;50.950;18.224;2023-03-01T13:57:51;24.60;;;12.20;;
57325;SDS011;43161;50.950;18.224;2023-03-01T14:03:12;24.30;;;11.40;;
57325;SDS011;43161;50.950;18.224;2023-03-01T14:05:43;25.30;;;12.60;;
57325;SDS011;43161;50.950;18.224;2023-03-01T14:08:26;28.00;;;14.40;;
57325;SDS011;43161;50.950;18.224;2023-03-01T14:19:18;21.30;;;11.40;;
57325;SDS011;43161;50.950;18.224;2023-03-01T14:21:50;24.30;;;12.10;;
57325;SDS011;43161;50.950;18.224;2023-03-01T14:24:29;24.30;;;11.60;;
57325;SDS011;43161;50.950;18.224;2023-03-01T14:27:00;23.50;;;11.50;;
57325;SDS011;43161;50.950;18.224;2023-03-01T14:29:34;25.30;;;12.90;;
57325;SDS011;43161;50.950;18.224;2023-03-01T14:34:47;23.50;;;12.00;;
57325;SDS011;43161;50.950;18.224;2023-03-01T14:40:01;24.90;;;12.00;;
57325;SDS011;43161;50.950;18.224;2023-03-01T14:42:34;24.20;;;11.50;;
57325;SDS011;43161;50.950;18.224;2023-03-01T14:45:00;22.20;;;11.60;;
57325;SDS011;43161;50.950;18.224;2023-03-01T14:47:31;24.90;;;13.00;;
57325;SDS011;43161;50.950;18.224;2023-03-01T14:50:01;24.50;;;12.40;;
57325;SDS011;43161;50.950;18.224;2023-03-01T14:55:04;23.10;;;12.10;;
57325;SDS011;43161;50.950;18.224;2023-03-01T14:57:42;25.00;;;13.30;;
57325;SDS011;43161;50.950;18.224;2023-03-01T15:00:10;23.70;;;12.40;;
57325;SDS011;43161;50.950;18.224;2023-03-01T15:02:41;27.60;;;13.30;;
57325;SDS011;43161;50.950;18.224;2023-03-01T15:05:08;23.20;;;12.20;;
57325;SDS011;43161;50.950;18.224;2023-03-01T15:07:37;23.50;;;12.70;;
57325;SDS011;43161;50.950;18.224;2023-03-01T15:10:05;23.40;;;12.30;;
57325;SDS011;43161;50.950;18.224;2023-03-01T15:12:38;30.60;;;14.00;;
57325;SDS011;43161;50.950;18.224;2023-03-01T15:15:30;35.50;;;14.00;;
57325;SDS011;43161;50.950;18.224;2023-03-01T15:17:55;26.50;;;13.80;;
57325;SDS011;43161;50.950;18.224;2023-03-01T15:20:24;27.20;;;13.30;;
57325;SDS011;43161;50.950;18.224;2023-03-01T15:22:53;28.50;;;15.80;;
57325;SDS011;43161;50.950;18.224;2023-03-01T15:25:21;27.70;;;14.60;;
57325;SDS011;43161;50.950;18.224;2023-03-01T15:27:52;28.60;;;14.50;;
57325;SDS011;43161;50.950;18.224;2023-03-01T15:35:45;30.90;;;15.80;;
57325;SDS011;43161;50.950;18.224;2023-03-01T15:40:58;34.30;;;17.00;;
57325;SDS011;43161;50.950;18.224;2023-03-01T15:49:03;48.40;;;26.30;;
57325;SDS011;43161;50.950;18.224;2023-03-01T15:51:34;37.00;;;18.00;;
57325;SDS011;43161;50.950;18.224;2023-03-01T15:54:02;46.00;;;22.20;;
57325;SDS011;43161;50.950;18.224;2023-03-01T15:56:30;126.90;;;51.60;;
57325;SDS011;43161;50.950;18.224;2023-03-01T15:59:00;97.70;;;44.50;;
57325;SDS011;43161;50.950;18.224;2023-03-01T16:01:27;64.30;;;31.90;;
57325;SDS011;43161;50.950;18.224;2023-03-01T16:03:53;49.80;;;25.50;;
57325;SDS011;43161;50.950;18.224;2023-03-01T16:06:19;40.40;;;21.70;;
57325;SDS011;43161;50.950;18.224;2023-03-01T16:08:45;38.00;;;19.50;;
57325;SDS011;43161;50.950;18.224;2023-03-01T16:11:13;39.40;;;18.90;;
57325;SDS011;43161;50.950;18.224;2023-03-01T16:13:41;35.50;;;16.10;;
57325;SDS011;43161;50.950;18.224;2023-03-01T16:16:09;32.90;;;15.40;;
57325;SDS011;43161;50.950;18.224;2023-03-01T16:18:38;29.30;;;14.60;;
57325;SDS011;43161;50.950;18.224;2023-03-01T16:21:04;29.90;;;14.30;;
57325;SDS011;43161;50.950;18.224;2023-03-01T16:23:30;31.90;;;15.50;;
57325;SDS011;43161;50.950;18.224;2023-03-01T16:25:59;34.30;;;16.00;;
57325;SDS011;43161;50.950;18.224;2023-03-01T16:28:25;38.60;;;16.10;;
57325;SDS011;43161;50.950;18.224;2023-03-01T16:30:51;36.10;;;16.20;;
57325;SDS011;43161;50.950;18.224;2023-03-01T16:33:17;36.80;;;15.60;;
57325;SDS011;43161;50.950;18.224;2023-03-01T16:35:43;40.90;;;16.30;;
57325;SDS011;43161;50.950;18.224;2023-03-01T16:38:10;40.40;;;16.60;;
57325;SDS011;43161;50.950;18.224;2023-03-01T16:40:36;37.10;;;15.50;;
57325;SDS011;43161;50.950;18.224;2023-03-01T16:43:02;34.80;;;14.80;;
57325;SDS011;43161;50.950;18.224;2023-03-01T16:45:32;37.50;;;16.40;;
57325;SDS011;43161;50.950;18.224;2023-03-01T16:48:01;40.30;;;16.10;;
57325;SDS011;43161;50.950;18.224;2023-03-01T16:50:27;38.20;;;16.60;;
57325;SDS011;43161;50.950;18.224;2023-03-01T16:52:53;38.20;;;15.50;;
57325;SDS011;43161;50.950;18.224;2023-03-01T16:55:19;37.10;;;15.60;;
57325;SDS011;43161;50.950;18.224;2023-03-01T16:57:45;41.00;;;15.70;;
57325;SDS011;43161;50.950;18.224;2023-03-01T17:00:11;40.70;;;16.40;;
57325;SDS011;43161;50.950;18.224;2023-03-01T17:02:38;44.10;;;16.60;;
57325;SDS011;43161;50.950;18.224;2023-03-01T17:05:06;38.30;;;15.40;;
57325;SDS011;43161;50.950;18.224;2023-03-01T17:07:33;35.80;;;15.10;;
57325;SDS011;43161;50.950;18.224;2023-03-01T17:10:03;38.60;;;14.00;;
57325;SDS011;43161;50.950;18.224;2023-03-01T17:12:30;31.50;;;14.40;;
57325;SDS011;43161;50.950;18.224;2023-03-01T17:14:57;40.80;;;15.40;;
57325;SDS011;43161;50.950;18.224;2023-03-01T17:17:23;37.60;;;14.50;;
57325;SDS011;43161;50.950;18.224;2023-03-01T17:19:49;35.40;;;14.10;;
57325;SDS011;43161;50.950;18.224;2023-03-01T17:22:14;31.80;;;13.30;;